Columbus, Illinois
Current Conditions -  °F | °C
As of 2:20 PM on Sunday 25 Jan 2015 (Local Time) from KUIN Reporting Station
Light Snow Light Snow  
Wind Chill: 22°   Ceiling: 900
Heat Index: 33°   Visibility: 2.5mi
Dew Point: 31°   Wind: 20mph
Humidity: 92%   Direction: 10°N
Pressure: 29.76"   Gusts: 28mph
Location:  39.9302°N, 91.3035°W
Report Text: KUIN 252020Z AUTO 01017G24KT 2 1/2SM -SN BR BKN009 OVC015 01/M01 A2976 RMK AO2 PRESRR P0000 T00061006
Loading
Personal Weather Stations






























Interactive Weather Map New forecast layout! Learn more

10-Day Weather Forecast

Advertisements
Track Severe Weather on mobile